AirNav   Everest Fuels
 
 1336 users online  

1L3 Searchlight Airport
Searchlight, Nevada, USA

GOING TO SEARCHLIGHT?


FAA INFORMATION EFFECTIVE 04 NOVEMBER 2021

Location

FAA Identifier: 1L3
Lat/Long: 35-26-40.4000N 114-54-33.7000W
35-26.673333N 114-54.561667W
35.4445556,-114.9093611
(estimated)
Elevation: 3413 ft. / 1040.3 m (surveyed)
Variation: 14E (1985)
From city: 1 mile SSE of SEARCHLIGHT, NV
Time zone: UTC -7 (UTC -8 during Standard Time)
Zip code: 89046

Airport Operations

Airport use: Open to the public
Activation date: 03/1953
Control tower: no
ARTCC: LOS ANGELES CENTER
FSS: RENO FLIGHT SERVICE STATION
NOTAMs facility: RNO (NOTAM-D service available)
Attendance: UNATNDD
Wind indicator: yes
Segmented circle: no
Landing fee: yes

Airport Communications

CTAF: 122.9

Nearby radio navigation aids

VOR radial/distance  VOR name  Freq  Var
GFSr020/22.9GOFFS VORTAC114.4015E
BLDr169/33.1BOULDER CITY VORTAC116.7015E

Airport Services

Parking: tiedowns
Airframe service: NONE
Powerplant service: NONE
Bottled oxygen: NONE
Bulk oxygen: NONE

Runway Information

Runway 16/34

Dimensions: 5040 x 70 ft. / 1536 x 21 m
Surface: asphalt, in fair condition
TALL BRUSH ADJACENT TO PAVED RUNWAY SURFACE NORTH- EASTERN EDGE OF PAVEMENT.
Runway edge markings: RWY 16/34 MARKINGS FADED.
RUNWAY 16  RUNWAY 34
Latitude: 35-27.088338N35-26.259758N
Longitude: 114-54.600907W114-54.523957W
Elevation: 3413.0 ft.3300.0 ft.
Traffic pattern: leftleft
Runway heading: 162 magnetic, 176 true342 magnetic, 356 true
Markings: basic, in poor conditionbasic, in poor condition
Runway end identifier lights: nono
Obstructions: 5 ft. fence, 275 ft. from runway, 15:1 slope to clear
+5 FT FENCE 83 FT LEFT AND PARALLEL TO CNTRLN.
5 ft. brush, 200 ft. from runway
2-4 FOOT BRUSH AT SOUTH END OF RUNWAY IN RUNWAY SAFETY AREA

Airport Ownership and Management from official FAA records

Ownership: Privately-owned
Owner: TURNBULL, LLC
6324 S. 199TH PLACE, SUITE 101
KENT, WA 98032
Phone 253-854-0090
Manager: JONATHAN DANIELS
PRAXIS AEROSPACE CONCEPTS INTL, 980 AMERICAN PACIFIC DR, SUITE 102
HENDERSON, NV 89014
Phone (702) 586-1160
PVT SECTION OF ARPT MANAGED BY PACI (HTTP://PRAXISAEROSPACE.COM/). CTC ARPT MGMT, PHONE 702-586-1160 OR EMAIL 1L3@PRAXISAEROSPACE.COM FOR PMSN PRIOR TO USE OR TO OBTAIN ARPT INFO.

Additional Remarks

LGTD 3481 FT MTN SW.
PROCS RQR THE USE OF TWO-WAY RADIOS DUE TO THE PRESENCE OF UNMANNED ACFT TFC.
FOR CD CTC LOS ANGELES ARTCC AT 661-575-2079.
MANNED AND UAS NA IN THE SAME TFC PAT. ARRIVING MANNED ACFT MAY FLW UAS ON FNA.
UNLGTD 165 FT PLINE LCTD APRXLY 3.2 MILES SOUTH OF RWY BLO THLD.
GROUND RISES AT CONSTANT RATE NORTH OF ARPT FOR APPROX 2 MILES.
AIRFIELD CONDITION NOT MONITORED
UAS / UAV / EXPERIMENTAL ACFT TRAFFIC USING ARPT AND OPRG IN ARPT TRAFFIC AREA BY NOTAM.

Instrument Procedures

There are no published instrument procedures at 1L3.

Some nearby airports with instrument procedures:

KIFP - Laughlin/Bullhead International Airport (24 nm SE)
KBVU - Boulder City Municipal Airport (30 nm N)
KHND - Henderson Executive Airport (34 nm N)
KLAS - Harry Reid International Airport (40 nm N)
KEED - Needles Airport (43 nm S)
 
Loc | Ops | Rwys | IFR | FBO | Links
Com | Nav | Svcs | Stats | Notes
Area around 1L3 (Searchlight Airport)
 
Road maps at: MapQuest Bing Google
 
Aerial photo
WARNING: Photo may not be current or correct
Aerial photo of 1L3 (Searchlight Airport)
Provided by PACI, Inc 2018
Photo taken 29-Nov-2017
looking northeast.

Do you have a better or more recent aerial photo of Searchlight Airport that you would like to share? If so, please send us your photo.

 
Sectional chart

 
Airport distance calculator
Flying to Searchlight Airport? Find the distance to fly.

From to 1L3

Sunrise and sunset
Times for 01-Dec-2021
 Local
(UTC-8)
 Zulu
(UTC)
Morning civil twilight06:0414:04
Sunrise06:3114:31
Sunset16:2600:26
Evening civil twilight16:5400:54

Current date and time
Zulu (UTC)  01-Dec-2021 22:44:01
Local (UTC-8)  01-Dec-2021 14:44:01
 
METAR
KBVU 
30nm N 
012215Z AUTO 04005KT 10SM CLR 23/M09 A3016 RMK AO2
KHND 
34nm N 
012156Z VRB03KT 10SM CLR 23/M08 A3020 RMK AO2 SLP233 T02281078
KIFP 
35nm SE 
012152Z 35018KT 10SM CLR 26/M09 A3007
KLAS 
40nm N 
012156Z 04005KT 10SM FEW250 23/M09 A3017 RMK AO2 SLP206 T02331089
KEED 
43nm S 
012156Z AUTO 01014KT 10SM CLR 27/M07 A3009 RMK AO2 SLP165 T02721072
KLSV 
47nm N 
012158Z AUTO 00000KT 10SM CLR 25/M08 A3015 RMK AO2 SLPNO T02451079 $
KVGT 
47nm N 
012153Z 00000KT 10SM CLR 24/M08 A3017 RMK AO2 SLP219 T02391083
KIGM 
49nm E 
012151Z AUTO 04008KT 10SM CLR 21/M08 A3019 RMK AO2 SLP176 T02111083
TAF
KHND 
34nm N 
011731Z 0118/0218 04006KT P6SM FEW250 FM020200 18007KT P6SM SKC FM021500 VRB05KT P6SM SCT250
KIFP 
35nm SE 
011731Z 0118/0218 02024G33KT P6SM FEW250 FM012300 01015G25KT P6SM FEW250 FM020200 01012KT P6SM FEW250
KLAS 
40nm N 
012045Z 0121/0224 05007KT P6SM FEW250 FM020100 24006KT P6SM SKC FM021400 VRB04KT P6SM SCT250 FM022000 05007KT P6SM SCT250
NOTAMs
Click for the latest NOTAMs
NOTAMs are issued by the DoD/FAA and will open in a separate window not controlled by AirNav.

 

 
 

Would you like to see your business listed on this page?

 If your business provides an interesting product or service to pilots, flight crews, aircraft, or users of the Searchlight Airport, you should consider listing it here.  To start the listing process, click on the button below
 
Add a business
 

Other Pages about Searchlight Airport

www.searchlightairpark.com
 
Update a link
 
Copyright © AirNav, LLC. All rights reserved. Privacy Policy  Contact